• Join FlightAware (Why Join?)
  • Login
  • US Flag 
12:04AM EDT


 

Airport Tracker/Info


-or-


 

Live Flight TrackerFlight Track Log ✈ DAL2352 ✈ 08-Sep-2013 ✈ KALB - KATL

Flight Track Log - Related Links

Times and Time Zones

All times are in EDT time to prevent confusion due to time zone crossing. See the DAL2352 flight status page for this flight to view local times or setup timezone preferences in your user account.

Time Position Orientation Groundspeed Altitude Reporting Facility
EDT Latitude Longitude Course Direction KTS MPH feet Rate Location/Type
06:23AM 42.7672 -73.8061 180° South 159 183 1,200  Level Boston Center
06:24AM 42.7714 -73.8092 332° Northwest 164 189 1,400 1,620 Climbing Boston Center
06:25AM 42.8169 -73.8411 333° Northwest 204 235 3,100 2,280 Climbing Boston Center
06:26AM 42.4958 -74.1560 200° South  Level Estimated
06:26AM 42.8703 -73.9047 319° Northwest 259 298 6,000  Level Boston Center
06:26AM 42.8828 -73.9164 326° Northwest 256 295 6,700 2,700 Climbing Boston Center
06:27AM 42.4111 -74.2734 180° South  Level Estimated
06:27AM 42.9358 -73.9942 313° West 267 307 9,700  Level Boston Center
06:28AM 42.3262 -74.3904 191° South  Level Estimated
06:28AM 42.9386 -74.0878 272° West 269 310 11,400  Level Boston Center
06:29AM 42.2413 -74.5072 180° South  Level Estimated
06:29AM 42.8583 -74.1706 217° Southwest 287 330 13,300  Level Boston Center
06:30AM 42.7378 -74.1361 168° South 338 389 15,300 2,160 Climbing Boston Center
06:31AM 42.6175 -74.1103 171° South 420 483 17,700 2,280 Climbing Boston Center
06:32AM 42.4925 -74.0900 173° South 448 516 19,900 2,100 Climbing Boston Center
06:33AM 42.3639 -74.0642 172° South 462 532 21,900 1,800 Climbing Boston Center
06:34AM 42.2350 -74.0411 172° South 467 537 23,500 1,440 Climbing Boston Center
06:35AM 42.1056 -74.0464 182° South 467 537 24,800 1,260 Climbing Boston Center
06:36AM 41.9700 -74.0542 182° South 473 544 26,000 1,200 Climbing Boston Center
06:37AM 41.8322 -74.0644 183° South 489 563 27,300 1,500 Climbing Boston Center
06:39AM 41.5689 -74.0928 185° South 494 568 30,700 1,620 Climbing New York Center
06:40AM 41.4642 -74.1844 213° Southwest 444 511 32,300 1,200 Climbing New York Center
06:41AM 41.3697 -74.2792 217° Southwest 438 504 33,200 780 Climbing New York Center
06:42AM 41.2800 -74.3600 214° Southwest 438 504 33,900 360 Climbing New York Center
06:43AM 41.1956 -74.4603 222° Southwest 432 497 34,000  Climbing New York Center
06:44AM 41.1069 -74.5603 220° Southwest 422 486 34,000  Level New York Center
06:45AM 41.0186 -74.6569 220° Southwest 422 486 34,000  Level New York Center
06:46AM 40.9297 -74.7589 221° Southwest 422 486 34,000  Level New York Center
06:47AM 40.8431 -74.8553 220° Southwest 422 486 34,000  Level New York Center
06:48AM 40.7564 -74.9542 221° Southwest 422 486 34,000  Level New York Center
06:49AM 40.6692 -75.0556 221° Southwest 422 486 34,000  Level New York Center
06:50AM 40.5803 -75.1539 220° Southwest 422 486 34,000  Level New York Center
06:51AM 40.4975 -75.2497 221° Southwest 416 479 34,000  Level New York Center
06:52AM 40.4144 -75.3478 222° Southwest 410 472 34,000  Level New York Center
06:53AM 40.3294 -75.4431 221° Southwest 410 472 34,000  Level New York Center
06:54AM 40.2422 -75.5378 220° Southwest 410 472 34,000  Level New York Center
06:55AM 40.1772 -75.6528 234° Southwest 405 466 34,000  Level New York Center
06:56AM 40.1178 -75.7733 237° Southwest 405 466 34,000  Level New York Center
06:57AM 40.0517 -75.9069 237° Southwest 405 466 34,000  Level New York Center
06:58AM 39.9900 -76.0272 236° Southwest 400 460 34,000  Level New York Center
07:00AM 39.8617 -76.2781 236° Southwest 404 465 34,000  Level Washington Center
07:01AM 39.7964 -76.3964 234° Southwest 409 471 34,000  Level Washington Center
07:02AM 39.7350 -76.5197 237° Southwest 414 476 34,000  Level Washington Center
07:03AM 39.6675 -76.6400 234° Southwest 414 476 34,000  Level Washington Center
07:04AM 39.6017 -76.7631 235° Southwest 420 483 34,000  Level Washington Center
07:05AM 39.5358 -76.8858 235° Southwest 420 483 34,000  Level Washington Center
07:06AM 39.4658 -77.0028 232° Southwest 420 483 34,000  Level Washington Center
07:07AM 39.3728 -77.1003 219° Southwest 420 483 34,000  Level Washington Center
07:08AM 39.2778 -77.1978 218° Southwest 427 491 34,000  Level Washington Center
07:09AM 39.1678 -77.3131 219° Southwest 432 497 34,000  Level Washington Center
07:10AM 39.0747 -77.4097 219° Southwest 432 497 34,000  Level Washington Center
07:11AM 38.9814 -77.5089 220° Southwest 432 497 34,000  Level Washington Center
07:12AM 38.8967 -77.5975 219° Southwest 437 503 34,000  Level Washington Center
07:13AM 38.7992 -77.6961 218° Southwest 442 509 34,000  Level Washington Center
07:14AM 38.7078 -77.7944 220° Southwest 442 509 34,000  Level Washington Center
07:15AM 38.6203 -77.8981 223° Southwest 437 503 34,000  Level Washington Center
07:16AM 38.5492 -78.0208 234° Southwest 432 497 34,000  Level Washington Center
07:17AM 38.4778 -78.1431 233° Southwest 432 497 34,000  Level Washington Center
07:18AM 38.4061 -78.2650 233° Southwest 432 497 34,000  Level Washington Center
07:19AM 38.3347 -78.3897 234° Southwest 437 503 34,000  Level Washington Center
07:20AM 38.2608 -78.5136 233° Southwest 437 503 34,000  Level Washington Center
07:21AM 38.1822 -78.6481 233° Southwest 442 509 34,000  Level Washington Center
07:22AM 38.1083 -78.7692 232° Southwest 442 509 34,000  Level Washington Center
07:23AM 38.0361 -78.8953 234° Southwest 447 514 34,000  Level Washington Center
07:24AM 37.9661 -79.0053 231° Southwest 447 514 34,000  Level Washington Center
07:25AM 37.8875 -79.1333 232° Southwest 447 514 34,000  Level Washington Center
07:26AM 37.8028 -79.2478 227° Southwest 454 522 34,000  Level Washington Center
07:27AM 37.7047 -79.3794 227° Southwest 465 535 34,000  Level Washington Center
07:28AM 37.6172 -79.5008 228° Southwest 472 543 34,000  Level Washington Center
07:29AM 37.5300 -79.6222 228° Southwest 477 549 34,000  Level Washington Center
07:30AM 37.4489 -79.7303 227° Southwest 477 549 34,000  Level Washington Center
07:31AM 37.3481 -79.8714 228° Southwest 486 559 34,000  Level Washington Center
07:32AM 37.2622 -79.9917 228° Southwest 486 559 34,000  Level Washington Center
07:33AM 37.1722 -80.1142 227° Southwest 481 554 34,000  Level Washington Center
07:34AM 37.0856 -80.2272 226° Southwest 482 555 34,000  Level Atlanta Center
07:35AM 36.9933 -80.3511 227° Southwest 482 555 34,000  Level Atlanta Center
07:36AM 36.9053 -80.4722 228° Southwest 482 555 34,000  Level Atlanta Center
07:37AM 36.8047 -80.6036 226° Southwest 487 560 34,000  Level Atlanta Center
07:38AM 36.7161 -80.7189 226° Southwest 474 545 34,000  Level Atlanta Center
07:39AM 36.6256 -80.8389 227° Southwest 474 545 34,000  Level Atlanta Center
07:40AM 36.5308 -80.9642 227° Southwest 485 558 34,000  Level Atlanta Center
07:41AM 36.4397 -81.0814 226° Southwest 485 558 34,000  Level Atlanta Center
07:42AM 36.3467 -81.2058 227° Southwest 485 558 34,000  Level Atlanta Center
07:43AM 36.2578 -81.3250 227° Southwest 483 556 34,000  Level Atlanta Center
07:44AM 36.1644 -81.4464 226° Southwest 483 556 34,000  Level Atlanta Center
07:45AM 36.0708 -81.5650 226° Southwest 489 563 34,000  Level Atlanta Center
07:46AM 35.9794 -81.6858 227° Southwest 481 554 34,000  Level Atlanta Center
07:47AM 35.8981 -81.7906 226° Southwest 481 554 34,000  Level Atlanta Center
07:48AM 35.8019 -81.9111 226° Southwest 487 560 34,000  Level Atlanta Center
07:49AM 35.7103 -82.0336 227° Southwest 482 555 34,000  Level Atlanta Center
07:50AM 35.6161 -82.1508 225° Southwest 489 563 34,000  Level Atlanta Center
07:51AM 35.5219 -82.2706 226° Southwest 489 563 34,000 -300 Level Atlanta Center
07:52AM 35.4297 -82.3872 226° Southwest 484 557 33,400 -660 Descending Atlanta Center
07:53AM 35.3353 -82.5036 225° Southwest 484 557 32,700 -900 Descending Atlanta Center
07:54AM 35.2469 -82.6172 226° Southwest 484 557 31,700 -900 Descending Atlanta Center
07:55AM 35.1542 -82.7331 226° Southwest 479 551 31,000 -1,080 Descending Atlanta Center
07:56AM 35.0636 -82.8461 226° Southwest 479 551 29,600 -1,080 Descending Atlanta Center
07:57AM 34.9708 -82.9589 225° Southwest 479 551 28,900 -780 Descending Atlanta Center
07:58AM 34.8675 -83.0794 224° Southwest 479 551 28,100 -1,500 Descending Atlanta Center
07:59AM 34.7806 -83.1892 226° Southwest 458 527 25,900 -2,520 Descending Atlanta Center
08:00AM 34.6956 -83.2783 221° Southwest 458 527 23,100 -1,980 Descending Atlanta Center
08:01AM 34.5856 -83.3778 217° Southwest 458 527 22,000 -600 Descending Atlanta Center
08:02AM 34.4881 -83.4667 217° Southwest 446 513 22,000 -360 Level Atlanta Center
08:03AM 34.4028 -83.5503 219° Southwest 446 513 21,300 -1,800 Descending Atlanta Center
08:04AM 34.3069 -83.6389 217° Southwest 441 507 18,400 -2,760 Descending Atlanta Center
08:05AM 34.2175 -83.7222 218° Southwest 430 495 15,800 -2,820 Descending Atlanta Center
08:06AM 34.1322 -83.8053 219° Southwest 411 473 12,800 -1,920 Descending Atlanta Center
08:07AM 34.0531 -83.8808 218° Southwest 384 442 12,000 -1,020 Descending Atlanta Center
08:08AM 33.9842 -83.9511 220° Southwest 340 391 10,800 -1,380 Descending Atlanta Center
08:09AM 33.8903 -83.9664 188° South 305 351 9,300 -1,560 Descending Atlanta Center
08:10AM 33.8167 -83.9667 180° South 299 344 7,900 -1,200 Descending Atlanta TRACON
08:11AM 33.7275 -83.9714 183° South 298 343 7,000 -480 Descending Atlanta Center
08:12AM 33.6606 -83.9814 187° South 262 302 7,000 -300 Level Atlanta Center
08:13AM 33.6314 -84.0514 243° Southwest 214 246 6,400 -780 Descending Atlanta Center
08:14AM 33.6314 -84.1236 270° West 209 241 5,500 -960 Descending Atlanta Center
08:15AM 33.6333 -84.1667 273° West 197 227 4,800 -1,020 Descending Atlanta TRACON
08:16AM 33.6333 -84.2333 270° West 199 229 3,800 -1,020 Descending Atlanta TRACON
08:17AM 33.6333 -84.3000 270° West 194 223 2,900 -960 Descending Atlanta TRACON
08:18AM 33.6333 -84.3500 270° West 168 193 2,000 -840 Descending Atlanta TRACON
08:19AM 33.6333 -84.4000 270° West 143 165 1,400 -660 Descending Atlanta TRACON